Time;durP1;ratioP1;P1;durP2;ratioP2;P2;SDS_P1;SDS_P2;PMS_P1;PMS_P2;Temp;Humidity;BMP_temperature;BMP_pressure;BME280_temperature;BME280_humidity;BME280_pressure;Samples;Min_cycle;Max_cycle;Signal;HPM_P1;HPM_P2
2023/12/23 00:01:19;;;;;;;0.30;0.20;;;4.60;99.90;;;;;;5090664;28;20271;-78
2023/12/23 00:03:44;;;;;;;0.30;0.20;;;4.60;99.90;;;;;;5089274;28;20467;-77
2023/12/23 00:06:10;;;;;;;0.30;0.20;;;4.60;99.90;;;;;;5089393;28;20267;-78
2023/12/23 00:08:36;;;;;;;0.30;0.30;;;4.60;99.90;;;;;;5090056;28;20210;-80
2023/12/23 00:11:01;;;;;;;0.30;0.20;;;4.50;99.90;;;;;;5090518;28;20165;-80
2023/12/23 00:13:27;;;;;;;0.30;0.30;;;4.50;99.90;;;;;;5091129;28;20337;-81
2023/12/23 00:15:53;;;;;;;0.30;0.30;;;4.50;99.90;;;;;;5089282;28;20184;-81
2023/12/23 00:18:19;;;;;;;0.30;0.20;;;4.50;99.90;;;;;;5091083;28;20192;-80
2023/12/23 00:20:44;;;;;;;0.30;0.20;;;4.50;99.90;;;;;;5089366;28;20305;-80
2023/12/23 00:23:13;;;;;;;0.30;0.20;;;4.50;99.90;;;;;;5090899;28;20245;-80
2023/12/23 00:25:39;;;;;;;0.30;0.20;;;4.50;99.90;;;;;;5090450;28;20172;-77
2023/12/23 00:28:05;;;;;;;0.30;0.20;;;4.50;99.90;;;;;;5089346;28;20228;-78
2023/12/23 00:30:31;;;;;;;0.30;0.30;;;4.40;99.90;;;;;;5090454;28;20165;-78
2023/12/23 00:32:57;;;;;;;0.30;0.20;;;4.40;99.90;;;;;;5090694;28;20433;-78
2023/12/23 00:35:22;;;;;;;0.30;0.20;;;4.40;99.90;;;;;;5090347;28;20179;-78
2023/12/23 00:37:48;;;;;;;0.30;0.20;;;4.40;99.90;;;;;;5090454;28;20220;-77
2023/12/23 00:40:14;;;;;;;0.30;0.20;;;4.40;99.90;;;;;;5088105;28;20168;-81
2023/12/23 00:42:40;;;;;;;0.30;0.20;;;4.40;99.90;;;;;;5088833;28;21020;-81
2023/12/23 00:45:06;;;;;;;0.30;0.20;;;4.40;99.90;;;;;;5090252;28;20469;-78
2023/12/23 00:47:32;;;;;;;0.30;0.30;;;4.40;99.90;;;;;;5088424;28;20653;-81
2023/12/23 00:49:58;;;;;;;0.30;0.20;;;4.40;99.90;;;;;;5089067;28;20202;-80
2023/12/23 00:52:23;;;;;;;0.30;0.20;;;4.30;99.90;;;;;;5089979;28;20773;-77
2023/12/23 00:54:49;;;;;;;0.30;0.20;;;4.30;99.90;;;;;;5088655;28;20553;-80
2023/12/23 00:57:15;;;;;;;0.30;0.20;;;4.30;99.90;;;;;;5088558;28;20944;-80
2023/12/23 00:59:40;;;;;;;0.30;0.20;;;4.20;99.90;;;;;;5090112;28;20192;-80
2023/12/23 01:02:06;;;;;;;0.30;0.20;;;4.20;99.90;;;;;;5089733;28;20173;-81
2023/12/23 01:04:32;;;;;;;0.30;0.20;;;4.20;99.90;;;;;;5089628;28;20200;-77
2023/12/23 01:06:58;;;;;;;0.30;0.30;;;4.10;99.90;;;;;;5088226;28;20180;-80
2023/12/23 01:09:23;;;;;;;0.30;0.20;;;4.10;99.90;;;;;;5089967;28;20460;-80
2023/12/23 01:11:49;;;;;;;0.30;0.20;;;4.00;99.90;;;;;;5089607;28;20195;-77
2023/12/23 01:14:15;;;;;;;0.30;0.20;;;3.90;99.90;;;;;;5089638;28;20231;-77
2023/12/23 01:16:41;;;;;;;0.30;0.20;;;3.80;99.90;;;;;;5089765;28;20200;-77
2023/12/23 01:19:07;;;;;;;0.30;0.20;;;3.80;99.90;;;;;;5090107;28;20189;-78
2023/12/23 01:21:33;;;;;;;0.30;0.20;;;3.70;99.90;;;;;;5089371;28;20255;-78
2023/12/23 01:23:58;;;;;;;0.30;0.20;;;3.70;99.90;;;;;;5088676;28;20557;-78
2023/12/23 01:26:24;;;;;;;0.30;0.27;;;3.70;99.90;;;;;;5089998;28;20188;-79
2023/12/23 01:28:50;;;;;;;0.30;0.20;;;3.70;99.90;;;;;;5089793;28;20206;-77
2023/12/23 01:31:18;;;;;;;0.30;0.20;;;3.70;99.90;;;;;;5089387;28;20169;-80
2023/12/23 01:33:43;;;;;;;0.30;0.20;;;3.70;99.90;;;;;;5089797;28;20188;-80
2023/12/23 01:36:09;;;;;;;0.30;0.20;;;3.70;99.90;;;;;;5089417;28;20210;-77
2023/12/23 01:38:35;;;;;;;0.30;0.20;;;3.70;99.90;;;;;;5089433;28;20200;-78
2023/12/23 01:41:00;;;;;;;0.30;0.20;;;3.80;99.90;;;;;;5088453;28;20650;-81
2023/12/23 01:43:26;;;;;;;0.30;0.20;;;3.80;99.90;;;;;;5089373;28;20423;-77
2023/12/23 01:45:59;;;;;;;0.30;0.20;;;3.80;99.90;;;;;;5088860;28;20433;-77
2023/12/23 01:48:26;;;;;;;0.30;0.20;;;3.80;99.90;;;;;;5087822;28;20445;-80
2023/12/23 01:50:54;;;;;;;0.30;0.22;;;3.80;99.90;;;;;;5087541;28;20173;-80
2023/12/23 01:53:21;;;;;;;0.30;0.20;;;3.90;99.90;;;;;;5089473;28;20200;-77
2023/12/23 01:55:47;;;;;;;0.30;0.20;;;3.90;99.90;;;;;;5087700;28;20180;-77
2023/12/23 01:58:14;;;;;;;0.30;0.20;;;3.90;99.90;;;;;;5089314;28;20215;-77
2023/12/23 02:00:40;;;;;;;0.30;0.30;;;3.80;99.90;;;;;;5089011;28;20255;-77
2023/12/23 02:03:06;;;;;;;0.30;0.30;;;3.80;99.90;;;;;;5088675;28;20283;-77
2023/12/23 02:05:31;;;;;;;0.30;0.20;;;3.80;99.90;;;;;;5088513;28;20516;-78
2023/12/23 02:07:57;;;;;;;0.30;0.20;;;3.80;99.90;;;;;;5087518;28;20247;-80
2023/12/23 02:10:24;;;;;;;0.30;0.20;;;3.80;99.90;;;;;;5088611;28;20400;-80
2023/12/23 02:13:08;;;;;;;0.30;0.20;;;3.70;99.90;;;;;;5087318;28;20834;-76
2023/12/23 02:15:35;;;;;;;0.30;0.20;;;3.70;99.90;;;;;;5088510;28;20165;-77
2023/12/23 02:18:01;;;;;;;0.30;0.20;;;3.70;99.90;;;;;;5088709;28;20227;-80
2023/12/23 02:20:27;;;;;;;0.30;0.20;;;3.80;99.90;;;;;;5088710;28;20228;-77
2023/12/23 02:22:53;;;;;;;0.30;0.20;;;3.80;99.90;;;;;;5088997;28;20194;-76
2023/12/23 02:25:19;;;;;;;0.30;0.30;;;3.80;99.90;;;;;;5088845;28;20562;-77
2023/12/23 02:27:50;;;;;;;0.30;0.20;;;3.80;99.90;;;;;;5092273;28;20181;-77
2023/12/23 02:30:16;;;;;;;0.30;0.20;;;3.80;99.90;;;;;;5091879;28;20180;-80
2023/12/23 02:32:44;;;;;;;0.30;0.20;;;3.80;99.90;;;;;;5091359;28;20645;-77
2023/12/23 02:35:11;;;;;;;0.30;0.20;;;3.80;99.90;;;;;;5091735;28;20560;-77
2023/12/23 02:37:36;;;;;;;0.30;0.20;;;3.80;99.90;;;;;;5092895;28;20204;-80
2023/12/23 02:40:03;;;;;;;0.30;0.20;;;3.90;99.90;;;;;;5091303;28;20202;-77
2023/12/23 02:42:28;;;;;;;0.30;0.20;;;3.90;99.90;;;;;;5090218;28;20177;-77
2023/12/23 02:44:54;;;;;;;0.30;0.20;;;3.90;99.90;;;;;;5092406;28;20234;-78
2023/12/23 02:47:20;;;;;;;0.30;0.20;;;4.00;99.90;;;;;;5092179;28;20181;-79
2023/12/23 02:49:45;;;;;;;0.30;0.20;;;4.00;99.90;;;;;;5092560;28;20192;-80
2023/12/23 02:52:11;;;;;;;0.30;0.30;;;4.00;99.90;;;;;;5092314;28;20168;-77
2023/12/23 02:54:37;;;;;;;0.30;0.20;;;4.00;99.90;;;;;;5091368;28;20204;-77
2023/12/23 02:57:03;;;;;;;0.30;0.20;;;4.10;99.90;;;;;;5092404;28;20235;-79
2023/12/23 02:59:28;;;;;;;0.30;0.20;;;4.00;99.90;;;;;;5092246;28;20402;-78
2023/12/23 03:01:54;;;;;;;0.30;0.20;;;4.00;99.90;;;;;;5091968;28;20172;-78
2023/12/23 03:04:20;;;;;;;0.30;0.20;;;4.00;99.90;;;;;;5090800;28;20201;-80
2023/12/23 03:06:46;;;;;;;0.30;0.20;;;4.00;99.90;;;;;;5090009;28;20187;-80
2023/12/23 03:09:12;;;;;;;0.30;0.20;;;4.00;99.90;;;;;;5090871;28;20200;-80
2023/12/23 03:11:38;;;;;;;0.30;0.20;;;4.00;99.90;;;;;;5091140;28;20649;-77
2023/12/23 03:14:05;;;;;;;0.30;0.20;;;4.00;99.90;;;;;;5090418;28;20204;-78
2023/12/23 03:16:34;;;;;;;0.30;0.20;;;4.00;99.90;;;;;;5090480;28;20979;-77
2023/12/23 03:19:03;;;;;;;0.30;0.20;;;3.90;99.90;;;;;;5092263;28;20204;-80
2023/12/23 03:21:29;;;;;;;0.30;0.20;;;4.00;99.90;;;;;;5091914;28;20315;-80
2023/12/23 03:23:56;;;;;;;0.30;0.20;;;4.00;99.90;;;;;;5090273;28;20596;-77
2023/12/23 03:26:21;;;;;;;0.30;0.20;;;3.90;99.90;;;;;;5091970;28;20176;-80
2023/12/23 03:28:47;;;;;;;0.30;0.20;;;3.90;99.90;;;;;;5090433;28;20200;-77
2023/12/23 03:31:13;;;;;;;0.30;0.20;;;3.90;99.90;;;;;;5090282;28;20180;-77
2023/12/23 03:33:41;;;;;;;0.30;0.20;;;3.90;99.90;;;;;;5092090;28;20428;-80
2023/12/23 03:36:07;;;;;;;0.30;0.20;;;3.90;99.90;;;;;;5091187;28;20226;-79
2023/12/23 03:38:33;;;;;;;0.30;0.20;;;3.90;99.90;;;;;;5089896;28;20224;-79
2023/12/23 03:40:59;;;;;;;0.30;0.20;;;3.90;99.90;;;;;;5091510;28;20173;-77
2023/12/23 03:43:25;;;;;;;0.30;0.20;;;3.90;99.90;;;;;;5090553;28;20189;-80
2023/12/23 03:45:50;;;;;;;0.30;0.20;;;3.90;99.90;;;;;;5091164;28;20234;-80
2023/12/23 03:48:16;;;;;;;0.30;0.20;;;3.90;99.90;;;;;;5091795;28;20192;-77
2023/12/23 03:50:42;;;;;;;0.30;0.20;;;3.90;99.90;;;;;;5090221;28;20407;-78
2023/12/23 03:53:08;;;;;;;0.30;0.20;;;3.90;99.90;;;;;;5091506;28;20188;-78
2023/12/23 03:55:34;;;;;;;0.30;0.20;;;3.90;99.90;;;;;;5091592;28;20169;-80
2023/12/23 03:58:00;;;;;;;0.30;0.20;;;3.90;99.90;;;;;;5091006;28;20214;-77
2023/12/23 04:00:27;;;;;;;0.30;0.20;;;3.80;99.90;;;;;;5091168;28;20172;-78
2023/12/23 04:02:53;;;;;;;0.30;0.20;;;3.80;99.90;;;;;;5091259;28;20777;-77
2023/12/23 04:05:19;;;;;;;0.30;0.20;;;3.80;99.90;;;;;;5089395;28;20180;-77
2023/12/23 04:07:48;;;;;;;0.30;0.20;;;3.80;99.90;;;;;;5090674;28;20174;-77
2023/12/23 04:10:14;;;;;;;0.30;0.30;;;3.80;99.90;;;;;;5091256;28;20394;-77
2023/12/23 04:12:40;;;;;;;0.30;0.20;;;3.80;99.90;;;;;;5090605;28;20422;-80
2023/12/23 04:15:06;;;;;;;0.30;0.20;;;3.80;99.90;;;;;;5089731;28;20395;-80
2023/12/23 04:17:32;;;;;;;0.30;0.20;;;3.80;99.90;;;;;;5089320;28;20216;-80
2023/12/23 04:19:58;;;;;;;0.30;0.20;;;3.80;99.90;;;;;;5090807;28;20245;-80
2023/12/23 04:22:24;;;;;;;0.30;0.20;;;3.80;99.90;;;;;;5089197;28;20183;-77
2023/12/23 04:24:49;;;;;;;0.30;0.30;;;3.80;99.90;;;;;;5090833;28;20203;-77
2023/12/23 04:27:15;;;;;;;0.30;0.20;;;3.80;99.90;;;;;;5089326;28;20180;-80
2023/12/23 04:29:41;;;;;;;0.30;0.20;;;3.80;99.90;;;;;;5090858;28;20343;-79
2023/12/23 04:32:07;;;;;;;0.30;0.20;;;3.80;99.90;;;;;;5088771;28;20766;-80
2023/12/23 04:34:33;;;;;;;0.30;0.20;;;3.90;99.90;;;;;;5090760;28;20200;-79
2023/12/23 04:36:58;;;;;;;0.30;0.20;;;3.90;99.90;;;;;;5090570;28;20208;-79
2023/12/23 04:39:24;;;;;;;0.30;0.20;;;3.90;99.90;;;;;;5089143;28;20536;-77
2023/12/23 04:41:50;;;;;;;0.30;0.20;;;3.90;99.90;;;;;;5089181;28;20177;-77
2023/12/23 04:44:16;;;;;;;0.30;0.20;;;3.90;99.90;;;;;;5090316;28;20412;-77
2023/12/23 04:46:46;;;;;;;0.30;0.20;;;3.90;99.90;;;;;;5089375;28;20203;-80
2023/12/23 04:49:11;;;;;;;0.30;0.20;;;3.90;99.90;;;;;;5089651;28;20490;-79
2023/12/23 04:51:37;;;;;;;0.30;0.20;;;4.00;99.90;;;;;;5090344;28;20172;-77
2023/12/23 04:54:03;;;;;;;0.30;0.30;;;4.00;99.90;;;;;;5089052;28;20200;-77
2023/12/23 04:56:28;;;;;;;0.30;0.20;;;4.00;99.90;;;;;;5089861;28;20299;-79
2023/12/23 04:58:56;;;;;;;0.30;0.20;;;4.00;99.90;;;;;;5089985;28;20473;-76
2023/12/23 05:01:22;;;;;;;0.30;0.20;;;4.00;99.90;;;;;;5090120;28;20169;-77
2023/12/23 05:03:48;;;;;;;0.30;0.20;;;3.90;99.90;;;;;;5089741;28;20196;-79
2023/12/23 05:06:14;;;;;;;0.30;0.20;;;3.90;99.90;;;;;;5088216;28;20300;-77
2023/12/23 05:08:40;;;;;;;0.30;0.20;;;4.00;99.90;;;;;;5090013;28;20192;-79
2023/12/23 05:11:05;;;;;;;0.30;0.20;;;4.00;99.90;;;;;;5089632;28;20165;-77
2023/12/23 05:13:31;;;;;;;0.30;0.20;;;4.00;99.90;;;;;;5089852;28;20407;-80
2023/12/23 05:15:57;;;;;;;0.30;0.20;;;4.00;99.90;;;;;;5089413;28;20642;-77
2023/12/23 05:18:23;;;;;;;0.30;0.20;;;4.00;99.90;;;;;;5090098;28;20649;-79
2023/12/23 05:20:48;;;;;;;0.30;0.20;;;3.90;99.90;;;;;;5089268;28;20731;-80
2023/12/23 05:23:14;;;;;;;0.30;0.20;;;4.00;99.90;;;;;;5089989;28;20442;-80
2023/12/23 05:25:40;;;;;;;0.30;0.20;;;4.00;99.90;;;;;;5089417;28;20184;-80
2023/12/23 05:28:06;;;;;;;0.30;0.20;;;4.00;99.90;;;;;;5089772;28;20682;-79
2023/12/23 05:30:31;;;;;;;0.30;0.20;;;4.00;99.90;;;;;;5087991;28;20183;-79
2023/12/23 05:32:57;;;;;;;0.30;0.20;;;4.00;99.90;;;;;;5087978;28;20873;-80
2023/12/23 05:35:22;;;;;;;0.30;0.20;;;4.00;99.90;;;;;;5089632;28;20497;-77
2023/12/23 05:37:48;;;;;;;0.30;0.30;;;4.10;99.90;;;;;;5089359;28;20493;-80
2023/12/23 05:40:14;;;;;;;0.30;0.20;;;4.10;99.90;;;;;;5088161;28;20187;-77
2023/12/23 05:42:40;;;;;;;0.30;0.20;;;4.00;99.90;;;;;;5087690;28;20957;-77
2023/12/23 05:45:06;;;;;;;0.30;0.20;;;4.10;99.90;;;;;;5088349;28;20176;-78
2023/12/23 05:47:31;;;;;;;0.30;0.20;;;4.10;99.90;;;;;;5088781;28;20669;-78
2023/12/23 05:49:57;;;;;;;0.30;0.20;;;4.10;99.90;;;;;;5087881;28;20267;-78
2023/12/23 05:52:23;;;;;;;0.30;0.20;;;4.10;99.90;;;;;;5088962;28;20180;-78
2023/12/23 05:54:49;;;;;;;0.30;0.20;;;4.10;99.90;;;;;;5089072;28;20332;-80
2023/12/23 05:57:15;;;;;;;0.30;0.20;;;4.20;99.90;;;;;;5087620;28;20447;-78
2023/12/23 05:59:41;;;;;;;0.30;0.20;;;4.20;99.90;;;;;;5089165;28;20200;-80
2023/12/23 06:02:07;;;;;;;0.30;0.20;;;4.20;99.90;;;;;;5087525;28;20199;-80
2023/12/23 06:04:33;;;;;;;0.30;0.20;;;4.10;99.90;;;;;;5089153;28;20204;-78
2023/12/23 06:06:59;;;;;;;0.30;0.20;;;4.10;99.90;;;;;;5088416;28;20172;-80
2023/12/23 06:09:25;;;;;;;0.30;0.20;;;4.10;99.90;;;;;;5088684;28;20352;-77
2023/12/23 06:11:51;;;;;;;0.30;0.20;;;4.10;99.90;;;;;;5088672;28;20203;-80
2023/12/23 06:14:16;;;;;;;0.30;0.20;;;4.10;99.90;;;;;;5087706;28;20835;-78
2023/12/23 06:16:42;;;;;;;0.30;0.20;;;4.10;99.90;;;;;;5088717;28;20467;-80
2023/12/23 06:19:08;;;;;;;0.30;0.20;;;4.10;99.90;;;;;;5087599;28;20192;-77
2023/12/23 06:21:34;;;;;;;0.30;0.20;;;4.20;99.90;;;;;;5087489;28;20281;-81
2023/12/23 06:24:01;;;;;;;0.30;0.20;;;4.10;99.90;;;;;;5089202;28;20228;-78
2023/12/23 06:26:27;;;;;;;0.30;0.20;;;4.10;99.90;;;;;;5086927;28;20179;-80
2023/12/23 06:28:52;;;;;;;0.30;0.20;;;4.10;99.90;;;;;;5088813;28;20196;-80
2023/12/23 06:31:18;;;;;;;0.30;0.20;;;4.10;99.90;;;;;;5088815;28;20165;-77
2023/12/23 06:33:44;;;;;;;0.30;0.20;;;4.10;99.90;;;;;;5087154;28;20208;-80
2023/12/23 06:36:09;;;;;;;0.30;0.20;;;4.10;99.90;;;;;;5088413;28;20218;-80
2023/12/23 06:38:35;;;;;;;0.30;0.20;;;4.00;99.90;;;;;;5088595;28;20200;-77
2023/12/23 06:41:03;;;;;;;0.30;0.20;;;4.00;99.90;;;;;;5086942;28;20267;-78
2023/12/23 06:43:29;;;;;;;0.30;0.20;;;4.00;99.90;;;;;;5087438;28;20253;-77
2023/12/23 06:45:55;;;;;;;0.30;0.20;;;3.90;99.90;;;;;;5087222;28;20191;-80
2023/12/23 06:48:21;;;;;;;0.30;0.20;;;3.90;99.90;;;;;;5087552;28;20196;-78
2023/12/23 06:50:46;;;;;;;0.30;0.20;;;3.90;99.90;;;;;;5088488;28;20176;-77
2023/12/23 06:53:13;;;;;;;0.30;0.20;;;3.90;99.90;;;;;;5087065;28;20215;-80
2023/12/23 06:55:38;;;;;;;0.30;0.20;;;3.90;99.90;;;;;;5087178;28;20437;-80
2023/12/23 06:58:04;;;;;;;0.30;0.20;;;3.80;99.90;;;;;;5088661;28;20248;-77
2023/12/23 07:00:30;;;;;;;0.30;0.20;;;3.80;99.90;;;;;;5088354;28;20240;-77
2023/12/23 07:02:56;;;;;;;0.30;0.20;;;3.90;99.90;;;;;;5088357;28;20490;-78
2023/12/23 07:05:21;;;;;;;0.30;0.20;;;3.90;99.90;;;;;;5088241;28;20397;-77
2023/12/23 07:07:47;;;;;;;0.30;0.20;;;4.00;99.90;;;;;;5088163;28;20356;-81
2023/12/23 07:10:14;;;;;;;0.30;0.20;;;4.00;99.90;;;;;;5087920;28;20183;-78
2023/12/23 07:12:40;;;;;;;0.30;0.20;;;4.00;99.90;;;;;;5089825;28;21096;-80
2023/12/23 07:15:07;;;;;;;0.30;0.20;;;4.00;99.90;;;;;;5092271;28;20168;-77
2023/12/23 07:17:33;;;;;;;0.30;0.20;;;4.00;99.90;;;;;;5090397;28;20227;-79
2023/12/23 07:20:00;;;;;;;0.30;0.20;;;4.00;99.90;;;;;;5090543;28;20220;-80
2023/12/23 07:22:28;;;;;;;0.30;0.20;;;4.00;99.90;;;;;;5090751;28;20184;-80
2023/12/23 07:24:54;;;;;;;0.30;0.20;;;4.00;99.90;;;;;;5090736;28;20172;-81
2023/12/23 07:27:20;;;;;;;0.30;0.20;;;4.10;99.90;;;;;;5090686;28;20184;-77
2023/12/23 07:29:46;;;;;;;0.30;0.20;;;4.10;99.90;;;;;;5091924;28;20195;-80
2023/12/23 07:32:12;;;;;;;0.30;0.20;;;4.10;99.90;;;;;;5091664;28;20259;-78
2023/12/23 07:34:38;;;;;;;0.30;0.20;;;4.20;99.90;;;;;;5090494;28;20196;-77
2023/12/23 07:37:04;;;;;;;0.30;0.20;;;4.20;99.90;;;;;;5091441;28;20200;-81
2023/12/23 07:39:29;;;;;;;0.30;0.20;;;4.30;99.90;;;;;;5091494;28;20539;-78
2023/12/23 07:41:57;;;;;;;0.30;0.20;;;4.30;99.90;;;;;;5091386;28;20397;-79
2023/12/23 07:44:24;;;;;;;0.30;0.20;;;4.40;99.90;;;;;;5090186;28;20279;-78
2023/12/23 07:46:49;;;;;;;0.30;0.20;;;4.40;99.90;;;;;;5089583;28;20183;-80
2023/12/23 07:49:15;;;;;;;0.30;0.20;;;4.40;99.90;;;;;;5089255;28;20203;-81
2023/12/23 07:51:41;;;;;;;0.30;0.20;;;4.40;99.90;;;;;;5089885;28;20172;-77
2023/12/23 07:54:07;;;;;;;0.30;0.20;;;4.40;99.90;;;;;;5090018;28;20200;-78
2023/12/23 07:56:33;;;;;;;0.30;0.20;;;4.50;99.90;;;;;;5090935;28;20496;-80
2023/12/23 07:58:58;;;;;;;0.30;0.20;;;4.50;99.90;;;;;;5090161;28;20687;-80
2023/12/23 08:01:24;;;;;;;0.30;0.20;;;4.50;99.90;;;;;;5090909;28;20176;-77
2023/12/23 08:03:50;;;;;;;0.30;0.20;;;4.50;99.90;;;;;;5091536;28;20656;-77
2023/12/23 08:06:18;;;;;;;0.30;0.20;;;4.50;99.90;;;;;;5089401;28;20428;-78
2023/12/23 08:08:47;;;;;;;0.30;0.20;;;4.60;99.90;;;;;;5089500;28;20202;-81
2023/12/23 08:11:13;;;;;;;0.30;0.20;;;4.70;99.90;;;;;;5089473;28;20451;-77
2023/12/23 08:13:40;;;;;;;0.30;0.20;;;4.80;99.90;;;;;;5090968;28;20696;-78
2023/12/23 08:16:07;;;;;;;0.30;0.30;;;4.90;99.90;;;;;;5089400;28;20181;-77
2023/12/23 08:18:33;;;;;;;0.30;0.20;;;5.00;99.90;;;;;;5091437;28;20320;-81
2023/12/23 08:20:59;;;;;;;0.30;0.20;;;5.10;99.90;;;;;;5090451;28;20701;-77
2023/12/23 08:23:24;;;;;;;0.30;0.20;;;5.20;99.90;;;;;;5090321;28;20437;-81
2023/12/23 08:25:50;;;;;;;0.30;0.20;;;5.40;99.90;;;;;;5090383;28;20172;-80
2023/12/23 08:28:16;;;;;;;0.30;0.20;;;5.50;99.90;;;;;;5089557;28;20200;-77
2023/12/23 08:30:42;;;;;;;0.30;0.20;;;5.50;99.90;;;;;;5090512;28;20176;-77
2023/12/23 08:33:07;;;;;;;0.30;0.20;;;5.60;99.90;;;;;;5089022;28;20440;-78
2023/12/23 08:35:33;;;;;;;0.30;0.20;;;5.90;99.90;;;;;;5090519;28;20172;-79
2023/12/23 08:37:59;;;;;;;0.30;0.23;;;6.10;99.90;;;;;;5090170;28;20216;-77
2023/12/23 08:40:25;;;;;;;0.30;0.20;;;6.40;99.90;;;;;;5089117;28;20200;-78
2023/12/23 08:42:51;;;;;;;0.30;0.20;;;6.70;99.90;;;;;;5086514;28;20456;-78
2023/12/23 08:45:17;;;;;;;0.30;0.30;;;7.10;99.90;;;;;;5090164;28;20365;-79
2023/12/23 08:47:43;;;;;;;0.30;0.30;;;7.60;99.90;;;;;;5090365;28;20233;-81
2023/12/23 08:50:09;;;;;;;0.30;0.30;;;8.30;99.90;;;;;;5089656;28;20174;-77
2023/12/23 08:52:35;;;;;;;0.30;0.20;;;9.00;99.90;;;;;;5088122;28;20641;-78
2023/12/23 08:55:01;;;;;;;0.30;0.30;;;9.60;99.90;;;;;;5090048;28;20172;-78
2023/12/23 08:57:27;;;;;;;0.30;0.30;;;10.20;99.90;;;;;;5086602;28;20244;-81
2023/12/23 08:59:53;;;;;;;0.40;0.30;;;10.70;99.90;;;;;;5087736;28;20676;-79
2023/12/23 09:02:19;;;;;;;0.30;0.20;;;11.10;99.90;;;;;;5089921;28;20717;-78
2023/12/23 09:04:45;;;;;;;0.40;0.30;;;11.50;99.90;;;;;;5088416;28;20188;-80
2023/12/23 09:07:12;;;;;;;0.30;0.30;;;11.90;99.90;;;;;;5086368;28;20275;-81
2023/12/23 09:09:40;;;;;;;0.30;0.20;;;12.20;99.90;;;;;;5086457;28;20470;-81
2023/12/23 09:12:07;;;;;;;0.40;0.30;;;12.50;99.90;;;;;;5086704;28;20453;-78
2023/12/23 09:14:33;;;;;;;0.40;0.30;;;12.80;99.90;;;;;;5086714;28;20432;-79
2023/12/23 09:16:58;;;;;;;0.40;0.30;;;13.00;99.90;;;;;;5087738;28;20448;-81
2023/12/23 09:19:24;;;;;;;0.40;0.20;;;13.10;99.90;;;;;;5088446;28;20211;-78
2023/12/23 09:21:50;;;;;;;0.40;0.20;;;13.30;99.90;;;;;;5087747;28;20167;-81
2023/12/23 09:24:15;;;;;;;0.40;0.20;;;13.50;99.90;;;;;;5088115;28;20191;-78
2023/12/23 09:26:42;;;;;;;0.40;0.30;;;13.70;99.90;;;;;;5087752;28;20176;-80
2023/12/23 09:29:09;;;;;;;0.40;0.20;;;13.90;99.90;;;;;;5088408;28;20769;-79
2023/12/23 09:31:34;;;;;;;0.40;0.20;;;14.10;99.90;;;;;;5087879;28;20413;-79
2023/12/23 09:34:00;;;;;;;0.30;0.20;;;14.30;99.90;;;;;;5087909;28;20729;-78
2023/12/23 09:36:26;;;;;;;0.30;0.20;;;14.40;99.90;;;;;;5087066;28;20191;-80
2023/12/23 09:38:52;;;;;;;0.40;0.20;;;14.50;99.90;;;;;;5087760;28;20897;-79
2023/12/23 09:41:17;;;;;;;0.30;0.20;;;14.60;99.90;;;;;;5089156;28;20393;-78
2023/12/23 09:43:43;;;;;;;0.40;0.20;;;14.30;99.90;;;;;;5089574;28;20650;-81
2023/12/23 09:46:12;;;;;;;0.40;0.20;;;13.80;99.60;;;;;;5087756;28;20365;-81
2023/12/23 09:48:39;;;;;;;0.40;0.20;;;13.30;99.90;;;;;;5088160;28;20954;-79
2023/12/23 09:51:04;;;;;;;0.37;0.20;;;12.80;99.90;;;;;;5088935;28;20774;-79
2023/12/23 09:53:36;;;;;;;0.40;0.30;;;12.50;99.90;;;;;;5088327;28;20445;-78
2023/12/23 09:56:03;;;;;;;0.30;0.20;;;12.30;99.90;;;;;;5087483;28;20644;-78
2023/12/23 09:58:29;;;;;;;0.40;0.20;;;12.10;99.90;;;;;;5088682;28;20480;-80
2023/12/23 10:00:55;;;;;;;0.30;0.20;;;11.90;99.90;;;;;;5087553;28;20439;-80
2023/12/23 10:03:24;;;;;;;0.30;0.20;;;11.50;99.90;;;;;;5089313;28;20260;-79
2023/12/23 10:05:51;;;;;;;0.30;0.20;;;11.00;99.90;;;;;;5087474;28;20208;-81
2023/12/23 10:08:18;;;;;;;0.30;0.20;;;10.60;99.90;;;;;;5088888;28;20449;-81
2023/12/23 10:10:46;;;;;;;0.30;0.20;;;10.10;99.90;;;;;;5087151;28;20543;-81
2023/12/23 10:13:12;;;;;;;0.30;0.20;;;9.80;99.90;;;;;;5087749;28;20473;-78
2023/12/23 10:15:41;;;;;;;0.30;0.20;;;9.50;99.90;;;;;;5088534;28;20259;-81
2023/12/23 10:18:11;;;;;;;0.30;0.20;;;9.20;99.90;;;;;;5089009;28;20383;-78
2023/12/23 10:20:36;;;;;;;0.30;0.20;;;8.90;99.90;;;;;;5087437;28;20228;-80
2023/12/23 10:23:02;;;;;;;0.30;0.20;;;8.70;99.90;;;;;;5088870;28;20661;-81
2023/12/23 10:25:29;;;;;;;0.30;0.20;;;8.50;99.90;;;;;;5087325;28;20187;-81
2023/12/23 10:28:00;;;;;;;0.30;0.20;;;8.30;99.90;;;;;;5088823;28;21052;-80
2023/12/23 10:30:28;;;;;;;0.30;0.20;;;8.10;99.90;;;;;;5088839;28;20171;-81
2023/12/23 10:32:59;;;;;;;0.30;0.20;;;8.00;99.90;;;;;;5089208;28;20192;-81
2023/12/23 10:35:27;;;;;;;0.30;0.20;;;7.90;99.90;;;;;;5088503;28;20408;-81
2023/12/23 10:37:56;;;;;;;0.30;0.20;;;7.90;99.90;;;;;;5087199;28;20223;-81
2023/12/23 10:40:25;;;;;;;0.30;0.20;;;7.90;99.90;;;;;;5088430;28;20176;-78
2023/12/23 10:42:54;;;;;;;0.30;0.30;;;7.90;99.90;;;;;;5088648;28;20192;-80
2023/12/23 10:45:20;;;;;;;0.30;0.20;;;7.80;99.90;;;;;;5088610;28;20614;-78
2023/12/23 10:47:49;;;;;;;0.30;0.20;;;7.80;99.90;;;;;;5090360;28;20208;-80
2023/12/23 10:50:16;;;;;;;0.30;0.20;;;7.80;99.90;;;;;;5092357;28;20188;-78
2023/12/23 10:52:42;;;;;;;0.30;0.20;;;7.80;99.90;;;;;;5091809;28;20634;-78
2023/12/23 10:55:10;;;;;;;0.30;0.20;;;7.80;99.90;;;;;;5090716;28;20196;-79
2023/12/23 10:57:37;;;;;;;0.30;0.20;;;7.70;99.90;;;;;;5090935;28;20729;-81
2023/12/23 11:00:05;;;;;;;0.30;0.20;;;7.60;99.90;;;;;;5092462;28;20218;-81
2023/12/23 11:02:34;;;;;;;0.30;0.20;;;7.60;99.90;;;;;;5092072;28;20620;-78
2023/12/23 11:05:06;;;;;;;0.30;0.20;;;7.50;99.90;;;;;;5092277;28;20550;-78
2023/12/23 11:07:43;;;;;;;0.30;0.20;;;7.40;99.90;;;;;;5090446;28;20199;-81
2023/12/23 11:10:10;;;;;;;0.30;0.20;;;7.40;99.90;;;;;;5090550;28;20199;-81
2023/12/23 11:12:38;;;;;;;0.30;0.20;;;7.40;99.90;;;;;;5092057;28;20687;-81
2023/12/23 11:15:04;;;;;;;0.30;0.20;;;7.30;99.90;;;;;;5092072;28;20172;-80
2023/12/23 11:17:31;;;;;;;0.30;0.20;;;7.20;99.90;;;;;;5091969;28;20632;-81
2023/12/23 11:19:59;;;;;;;0.30;0.20;;;7.20;99.90;;;;;;5090633;28;20326;-78
2023/12/23 11:22:27;;;;;;;0.30;0.20;;;7.20;99.90;;;;;;5092149;28;20229;-79
2023/12/23 11:24:54;;;;;;;0.30;0.20;;;7.30;99.90;;;;;;5091727;28;20245;-80
2023/12/23 11:27:34;;;;;;;0.30;0.30;;;7.20;99.90;;;;;;5091675;28;20208;-81
2023/12/23 11:30:09;;;;;;;0.30;0.20;;;7.30;99.90;;;;;;5092071;28;20172;-81
2023/12/23 11:32:41;;;;;;;0.30;0.20;;;7.20;99.90;;;;;;5090205;28;20527;-80
2023/12/23 11:35:14;;;;;;;0.30;0.20;;;7.20;99.90;;;;;;5091479;28;20374;-78
2023/12/23 11:37:54;;;;;;;0.30;0.20;;;7.10;99.90;;;;;;5091515;28;20295;-78
2023/12/23 11:40:21;;;;;;;0.30;0.20;;;7.10;99.90;;;;;;5091220;28;20188;-78
2023/12/23 11:42:48;;;;;;;0.30;0.20;;;7.10;99.90;;;;;;5090470;28;20240;-80
2023/12/23 11:45:14;;;;;;;0.30;0.20;;;7.10;99.90;;;;;;5090151;28;20203;-78
2023/12/23 11:47:40;;;;;;;0.30;0.20;;;7.20;99.90;;;;;;5091583;28;20172;-81
2023/12/23 11:50:07;;;;;;;0.30;0.20;;;7.10;99.90;;;;;;5090179;28;20198;-81
2023/12/23 11:52:34;;;;;;;0.30;0.20;;;7.10;99.90;;;;;;5091159;28;20432;-77
2023/12/23 11:55:01;;;;;;;0.30;0.20;;;7.10;99.90;;;;;;5090186;28;20251;-78
2023/12/23 11:57:28;;;;;;;0.30;0.20;;;7.20;99.90;;;;;;5091341;28;20466;-80
2023/12/23 11:59:55;;;;;;;0.30;0.20;;;7.20;99.90;;;;;;5091223;28;20618;-77
2023/12/23 12:02:21;;;;;;;0.30;0.20;;;7.20;99.90;;;;;;5091339;28;20176;-77
2023/12/23 12:04:47;;;;;;;0.30;0.20;;;7.20;99.90;;;;;;5091030;28;20184;-78
2023/12/23 12:07:13;;;;;;;0.30;0.20;;;7.20;99.90;;;;;;5090754;28;20419;-78
2023/12/23 12:09:39;;;;;;;0.30;0.20;;;7.10;99.90;;;;;;5089368;28;20196;-78
2023/12/23 12:12:05;;;;;;;0.30;0.20;;;7.20;99.90;;;;;;5090609;28;20799;-77
2023/12/23 12:14:31;;;;;;;0.30;0.20;;;7.20;99.90;;;;;;5089353;28;20208;-77
2023/12/23 12:16:57;;;;;;;0.30;0.20;;;7.20;99.90;;;;;;5090591;28;20200;-77
2023/12/23 12:19:23;;;;;;;0.30;0.20;;;7.30;99.90;;;;;;5089341;28;20192;-78
2023/12/23 12:21:48;;;;;;;0.30;0.20;;;7.30;99.90;;;;;;5089350;28;20188;-78
2023/12/23 12:24:14;;;;;;;0.30;0.20;;;7.30;99.90;;;;;;5090841;28;20227;-78
2023/12/23 12:26:42;;;;;;;0.30;0.20;;;7.30;99.90;;;;;;5090643;28;20198;-81
2023/12/23 12:29:08;;;;;;;0.30;0.20;;;7.30;99.90;;;;;;5091146;28;20449;-81
2023/12/23 12:31:34;;;;;;;0.30;0.20;;;7.30;99.90;;;;;;5090633;28;20205;-81
2023/12/23 12:34:00;;;;;;;0.30;0.20;;;7.30;99.90;;;;;;5090291;28;20200;-81
2023/12/23 12:36:25;;;;;;;0.30;0.20;;;7.30;99.90;;;;;;5088775;28;20195;-78
2023/12/23 12:38:52;;;;;;;0.30;0.20;;;7.30;99.90;;;;;;5089504;28;20301;-78
2023/12/23 12:41:18;;;;;;;0.30;0.20;;;7.30;99.90;;;;;;5088890;28;20409;-80
2023/12/23 12:43:44;;;;;;;0.30;0.20;;;7.30;99.90;;;;;;5088948;28;20196;-80
2023/12/23 12:46:14;;;;;;;0.30;0.20;;;7.30;99.90;;;;;;5086935;28;20202;-78
2023/12/23 12:48:40;;;;;;;0.30;0.20;;;7.40;99.90;;;;;;5089156;28;20203;-78
2023/12/23 12:51:06;;;;;;;0.30;0.20;;;7.40;99.90;;;;;;5088114;28;20168;-78